sensor_id;sensor_type;location;lat;lon;timestamp;P1;durP1;ratioP1;P2;durP2;ratioP2
12467;SDS011;57850;52.922;6.256;2022-08-03T00:02:12;7.82;;;3.63;;
12467;SDS011;57850;52.922;6.256;2022-08-03T00:04:38;9.88;;;3.90;;
12467;SDS011;57850;52.922;6.256;2022-08-03T00:07:05;6.82;;;3.50;;
12467;SDS011;57850;52.922;6.256;2022-08-03T00:09:32;9.35;;;3.65;;
12467;SDS011;57850;52.922;6.256;2022-08-03T00:11:58;9.80;;;3.38;;
12467;SDS011;57850;52.922;6.256;2022-08-03T00:14:25;10.68;;;3.95;;
12467;SDS011;57850;52.922;6.256;2022-08-03T00:16:53;8.82;;;3.30;;
12467;SDS011;57850;52.922;6.256;2022-08-03T00:19:19;6.78;;;3.05;;
12467;SDS011;57850;52.922;6.256;2022-08-03T00:21:46;8.40;;;3.13;;
12467;SDS011;57850;52.922;6.256;2022-08-03T00:24:13;7.22;;;2.90;;
12467;SDS011;57850;52.922;6.256;2022-08-03T00:26:39;6.40;;;3.05;;
12467;SDS011;57850;52.922;6.256;2022-08-03T00:29:06;6.50;;;2.92;;
12467;SDS011;57850;52.922;6.256;2022-08-03T00:31:33;4.68;;;2.50;;
12467;SDS011;57850;52.922;6.256;2022-08-03T00:34:03;8.05;;;2.92;;
12467;SDS011;57850;52.922;6.256;2022-08-03T00:36:30;8.60;;;2.90;;
12467;SDS011;57850;52.922;6.256;2022-08-03T00:38:57;8.93;;;3.00;;
12467;SDS011;57850;52.922;6.256;2022-08-03T00:41:23;7.82;;;2.90;;
12467;SDS011;57850;52.922;6.256;2022-08-03T00:43:50;9.88;;;2.38;;
12467;SDS011;57850;52.922;6.256;2022-08-03T00:46:17;6.90;;;2.65;;
12467;SDS011;57850;52.922;6.256;2022-08-03T00:48:45;6.65;;;2.90;;
12467;SDS011;57850;52.922;6.256;2022-08-03T00:51:13;8.10;;;3.25;;
12467;SDS011;57850;52.922;6.256;2022-08-03T00:53:39;12.50;;;2.50;;
12467;SDS011;57850;52.922;6.256;2022-08-03T00:56:06;11.40;;;3.17;;
12467;SDS011;57850;52.922;6.256;2022-08-03T00:58:33;9.00;;;2.90;;
12467;SDS011;57850;52.922;6.256;2022-08-03T01:01:00;5.97;;;2.33;;
12467;SDS011;57850;52.922;6.256;2022-08-03T01:03:28;6.35;;;2.72;;
12467;SDS011;57850;52.922;6.256;2022-08-03T01:05:57;4.90;;;2.38;;
12467;SDS011;57850;52.922;6.256;2022-08-03T01:08:35;6.15;;;2.65;;
12467;SDS011;57850;52.922;6.256;2022-08-03T01:11:09;14.68;;;2.80;;
12467;SDS011;57850;52.922;6.256;2022-08-03T01:13:44;4.00;;;2.40;;
12467;SDS011;57850;52.922;6.256;2022-08-03T01:16:18;4.47;;;2.40;;
12467;SDS011;57850;52.922;6.256;2022-08-03T01:18:56;8.77;;;2.63;;
12467;SDS011;57850;52.922;6.256;2022-08-03T01:21:31;8.55;;;3.13;;
12467;SDS011;57850;52.922;6.256;2022-08-03T01:24:10;11.35;;;2.75;;
12467;SDS011;57850;52.922;6.256;2022-08-03T01:35:19;7.45;;;2.92;;
12467;SDS011;57850;52.922;6.256;2022-08-03T01:37:52;10.20;;;3.05;;
12467;SDS011;57850;52.922;6.256;2022-08-03T01:40:23;5.75;;;2.83;;
12467;SDS011;57850;52.922;6.256;2022-08-03T01:42:52;5.47;;;2.75;;
12467;SDS011;57850;52.922;6.256;2022-08-03T01:45:22;8.88;;;3.05;;
12467;SDS011;57850;52.922;6.256;2022-08-03T01:47:49;8.43;;;3.30;;
12467;SDS011;57850;52.922;6.256;2022-08-03T01:50:18;5.57;;;2.63;;
12467;SDS011;57850;52.922;6.256;2022-08-03T01:52:49;9.07;;;3.28;;
12467;SDS011;57850;52.922;6.256;2022-08-03T01:55:20;7.65;;;3.25;;
12467;SDS011;57850;52.922;6.256;2022-08-03T01:57:51;8.57;;;3.10;;
12467;SDS011;57850;52.922;6.256;2022-08-03T02:00:22;8.77;;;2.88;;
12467;SDS011;57850;52.922;6.256;2022-08-03T02:02:49;8.73;;;2.90;;
12467;SDS011;57850;52.922;6.256;2022-08-03T02:05:19;9.20;;;2.90;;
12467;SDS011;57850;52.922;6.256;2022-08-03T02:07:46;7.22;;;2.95;;
12467;SDS011;57850;52.922;6.256;2022-08-03T02:10:18;7.68;;;2.97;;
12467;SDS011;57850;52.922;6.256;2022-08-03T02:12:47;8.63;;;3.03;;
12467;SDS011;57850;52.922;6.256;2022-08-03T02:15:15;13.25;;;3.00;;
12467;SDS011;57850;52.922;6.256;2022-08-03T02:17:47;8.77;;;3.40;;
12467;SDS011;57850;52.922;6.256;2022-08-03T02:20:18;8.73;;;3.35;;
12467;SDS011;57850;52.922;6.256;2022-08-03T02:22:46;7.30;;;2.97;;
12467;SDS011;57850;52.922;6.256;2022-08-03T02:25:14;7.65;;;3.15;;
12467;SDS011;57850;52.922;6.256;2022-08-03T02:27:42;6.05;;;3.17;;
12467;SDS011;57850;52.922;6.256;2022-08-03T02:30:16;9.27;;;3.50;;
12467;SDS011;57850;52.922;6.256;2022-08-03T02:32:46;10.13;;;3.30;;
12467;SDS011;57850;52.922;6.256;2022-08-03T02:35:18;13.32;;;3.42;;
12467;SDS011;57850;52.922;6.256;2022-08-03T02:37:48;10.23;;;3.85;;
12467;SDS011;57850;52.922;6.256;2022-08-03T02:40:17;9.38;;;3.08;;
12467;SDS011;57850;52.922;6.256;2022-08-03T02:42:48;8.02;;;3.05;;
12467;SDS011;57850;52.922;6.256;2022-08-03T02:45:17;11.73;;;3.85;;
12467;SDS011;57850;52.922;6.256;2022-08-03T02:47:46;7.93;;;3.42;;
12467;SDS011;57850;52.922;6.256;2022-08-03T02:50:18;8.13;;;2.97;;
12467;SDS011;57850;52.922;6.256;2022-08-03T02:52:46;7.00;;;3.55;;
12467;SDS011;57850;52.922;6.256;2022-08-03T02:55:14;8.13;;;3.50;;
12467;SDS011;57850;52.922;6.256;2022-08-03T02:57:43;7.68;;;3.38;;
12467;SDS011;57850;52.922;6.256;2022-08-03T03:00:11;7.43;;;3.22;;
12467;SDS011;57850;52.922;6.256;2022-08-03T03:02:39;5.75;;;3.15;;
12467;SDS011;57850;52.922;6.256;2022-08-03T03:05:08;10.57;;;3.00;;
12467;SDS011;57850;52.922;6.256;2022-08-03T03:07:36;8.82;;;3.65;;
12467;SDS011;57850;52.922;6.256;2022-08-03T03:10:03;6.45;;;3.45;;
12467;SDS011;57850;52.922;6.256;2022-08-03T03:12:31;12.05;;;3.65;;
12467;SDS011;57850;52.922;6.256;2022-08-03T03:15:00;12.88;;;3.55;;
12467;SDS011;57850;52.922;6.256;2022-08-03T03:17:26;13.30;;;3.70;;
12467;SDS011;57850;52.922;6.256;2022-08-03T03:19:54;6.72;;;3.47;;
12467;SDS011;57850;52.922;6.256;2022-08-03T03:22:23;9.35;;;4.10;;
12467;SDS011;57850;52.922;6.256;2022-08-03T03:24:50;10.95;;;3.65;;
12467;SDS011;57850;52.922;6.256;2022-08-03T03:27:18;10.07;;;3.70;;
12467;SDS011;57850;52.922;6.256;2022-08-03T03:29:46;9.35;;;3.72;;
12467;SDS011;57850;52.922;6.256;2022-08-03T03:32:13;8.93;;;3.58;;
12467;SDS011;57850;52.922;6.256;2022-08-03T03:34:40;5.85;;;3.55;;
12467;SDS011;57850;52.922;6.256;2022-08-03T03:37:08;9.38;;;3.42;;
12467;SDS011;57850;52.922;6.256;2022-08-03T03:39:36;8.23;;;3.67;;
12467;SDS011;57850;52.922;6.256;2022-08-03T03:42:03;12.80;;;4.13;;
12467;SDS011;57850;52.922;6.256;2022-08-03T03:44:30;7.82;;;3.60;;
12467;SDS011;57850;52.922;6.256;2022-08-03T03:46:57;7.03;;;3.53;;
12467;SDS011;57850;52.922;6.256;2022-08-03T03:49:23;10.18;;;3.65;;
12467;SDS011;57850;52.922;6.256;2022-08-03T03:51:51;10.32;;;3.67;;
12467;SDS011;57850;52.922;6.256;2022-08-03T03:54:19;8.80;;;3.60;;
12467;SDS011;57850;52.922;6.256;2022-08-03T03:56:48;7.68;;;3.50;;
12467;SDS011;57850;52.922;6.256;2022-08-03T03:59:14;9.98;;;3.70;;
12467;SDS011;57850;52.922;6.256;2022-08-03T04:01:41;8.40;;;3.85;;
12467;SDS011;57850;52.922;6.256;2022-08-03T04:04:08;7.97;;;3.60;;
12467;SDS011;57850;52.922;6.256;2022-08-03T04:06:52;10.38;;;4.22;;
12467;SDS011;57850;52.922;6.256;2022-08-03T04:09:37;9.60;;;3.83;;
12467;SDS011;57850;52.922;6.256;2022-08-03T04:12:25;8.90;;;3.70;;
12467;SDS011;57850;52.922;6.256;2022-08-03T04:14:55;6.00;;;3.65;;
12467;SDS011;57850;52.922;6.256;2022-08-03T04:17:23;11.82;;;3.88;;
12467;SDS011;57850;52.922;6.256;2022-08-03T04:19:52;11.90;;;4.38;;
12467;SDS011;57850;52.922;6.256;2022-08-03T04:22:21;9.48;;;4.07;;
12467;SDS011;57850;52.922;6.256;2022-08-03T04:24:52;10.98;;;4.07;;
12467;SDS011;57850;52.922;6.256;2022-08-03T04:27:22;8.60;;;3.72;;
12467;SDS011;57850;52.922;6.256;2022-08-03T04:29:54;9.85;;;3.80;;
12467;SDS011;57850;52.922;6.256;2022-08-03T04:32:22;9.30;;;3.95;;
12467;SDS011;57850;52.922;6.256;2022-08-03T04:34:52;10.13;;;4.28;;
12467;SDS011;57850;52.922;6.256;2022-08-03T04:37:21;8.98;;;4.30;;
12467;SDS011;57850;52.922;6.256;2022-08-03T04:39:56;9.02;;;4.20;;
12467;SDS011;57850;52.922;6.256;2022-08-03T04:42:28;12.05;;;4.45;;
12467;SDS011;57850;52.922;6.256;2022-08-03T04:44:58;7.65;;;3.58;;
12467;SDS011;57850;52.922;6.256;2022-08-03T04:47:26;12.27;;;4.40;;
12467;SDS011;57850;52.922;6.256;2022-08-03T04:49:54;12.00;;;4.20;;
12467;SDS011;57850;52.922;6.256;2022-08-03T04:52:21;9.02;;;4.05;;
12467;SDS011;57850;52.922;6.256;2022-08-03T04:54:48;13.00;;;4.35;;
12467;SDS011;57850;52.922;6.256;2022-08-03T04:57:15;8.13;;;3.88;;
12467;SDS011;57850;52.922;6.256;2022-08-03T04:59:43;7.38;;;3.53;;
12467;SDS011;57850;52.922;6.256;2022-08-03T05:02:09;7.85;;;4.47;;
12467;SDS011;57850;52.922;6.256;2022-08-03T05:04:36;8.20;;;4.30;;
12467;SDS011;57850;52.922;6.256;2022-08-03T05:07:05;12.25;;;4.40;;
12467;SDS011;57850;52.922;6.256;2022-08-03T05:09:32;8.63;;;3.63;;
12467;SDS011;57850;52.922;6.256;2022-08-03T05:12:00;9.73;;;4.25;;
12467;SDS011;57850;52.922;6.256;2022-08-03T05:14:27;11.05;;;4.55;;
12467;SDS011;57850;52.922;6.256;2022-08-03T05:16:55;12.43;;;4.32;;
12467;SDS011;57850;52.922;6.256;2022-08-03T05:19:21;15.10;;;4.50;;
12467;SDS011;57850;52.922;6.256;2022-08-03T05:21:48;11.20;;;4.13;;
12467;SDS011;57850;52.922;6.256;2022-08-03T05:24:15;10.73;;;4.35;;
12467;SDS011;57850;52.922;6.256;2022-08-03T05:26:42;11.23;;;4.60;;
12467;SDS011;57850;52.922;6.256;2022-08-03T05:29:08;8.68;;;4.35;;
12467;SDS011;57850;52.922;6.256;2022-08-03T05:31:35;14.35;;;4.45;;
12467;SDS011;57850;52.922;6.256;2022-08-03T05:34:03;9.35;;;3.60;;
12467;SDS011;57850;52.922;6.256;2022-08-03T05:36:29;12.73;;;4.15;;
12467;SDS011;57850;52.922;6.256;2022-08-03T05:38:56;10.75;;;4.03;;
12467;SDS011;57850;52.922;6.256;2022-08-03T05:41:23;8.52;;;4.15;;
12467;SDS011;57850;52.922;6.256;2022-08-03T05:43:50;10.25;;;4.28;;
12467;SDS011;57850;52.922;6.256;2022-08-03T05:46:17;9.65;;;4.15;;
12467;SDS011;57850;52.922;6.256;2022-08-03T05:48:44;9.20;;;3.92;;
12467;SDS011;57850;52.922;6.256;2022-08-03T05:51:13;16.52;;;4.20;;
12467;SDS011;57850;52.922;6.256;2022-08-03T05:53:39;10.40;;;4.50;;
12467;SDS011;57850;52.922;6.256;2022-08-03T05:56:07;16.52;;;5.13;;
12467;SDS011;57850;52.922;6.256;2022-08-03T05:58:34;14.55;;;4.60;;
12467;SDS011;57850;52.922;6.256;2022-08-03T06:01:00;9.63;;;4.40;;
12467;SDS011;57850;52.922;6.256;2022-08-03T06:03:27;10.02;;;3.60;;
12467;SDS011;57850;52.922;6.256;2022-08-03T06:05:54;10.30;;;4.00;;
12467;SDS011;57850;52.922;6.256;2022-08-03T06:08:22;11.13;;;5.03;;
12467;SDS011;57850;52.922;6.256;2022-08-03T06:10:49;7.50;;;4.78;;
12467;SDS011;57850;52.922;6.256;2022-08-03T06:13:15;11.32;;;3.95;;
12467;SDS011;57850;52.922;6.256;2022-08-03T06:15:42;11.75;;;4.95;;
12467;SDS011;57850;52.922;6.256;2022-08-03T06:18:09;17.23;;;4.85;;
12467;SDS011;57850;52.922;6.256;2022-08-03T06:20:35;15.52;;;4.28;;
12467;SDS011;57850;52.922;6.256;2022-08-03T06:23:02;13.73;;;4.85;;
12467;SDS011;57850;52.922;6.256;2022-08-03T06:25:29;14.30;;;4.57;;
12467;SDS011;57850;52.922;6.256;2022-08-03T06:27:56;12.00;;;4.47;;
12467;SDS011;57850;52.922;6.256;2022-08-03T06:30:23;11.82;;;4.90;;
12467;SDS011;57850;52.922;6.256;2022-08-03T06:32:49;10.60;;;4.45;;
12467;SDS011;57850;52.922;6.256;2022-08-03T06:35:16;13.20;;;4.57;;
12467;SDS011;57850;52.922;6.256;2022-08-03T06:37:43;11.95;;;4.60;;
12467;SDS011;57850;52.922;6.256;2022-08-03T06:40:11;10.55;;;4.43;;
12467;SDS011;57850;52.922;6.256;2022-08-03T06:42:41;13.20;;;4.55;;
12467;SDS011;57850;52.922;6.256;2022-08-03T06:45:09;15.20;;;4.90;;
12467;SDS011;57850;52.922;6.256;2022-08-03T06:47:37;16.13;;;4.68;;
12467;SDS011;57850;52.922;6.256;2022-08-03T06:50:06;15.95;;;5.28;;
12467;SDS011;57850;52.922;6.256;2022-08-03T06:52:34;13.57;;;4.25;;
12467;SDS011;57850;52.922;6.256;2022-08-03T06:55:01;21.67;;;5.22;;
12467;SDS011;57850;52.922;6.256;2022-08-03T06:57:28;17.48;;;5.00;;
12467;SDS011;57850;52.922;6.256;2022-08-03T06:59:56;12.55;;;4.53;;
12467;SDS011;57850;52.922;6.256;2022-08-03T07:02:25;12.00;;;5.45;;
12467;SDS011;57850;52.922;6.256;2022-08-03T07:04:52;16.20;;;5.30;;
12467;SDS011;57850;52.922;6.256;2022-08-03T07:07:19;12.75;;;5.38;;
12467;SDS011;57850;52.922;6.256;2022-08-03T07:09:46;11.38;;;4.78;;
12467;SDS011;57850;52.922;6.256;2022-08-03T07:12:13;15.75;;;5.32;;
12467;SDS011;57850;52.922;6.256;2022-08-03T07:14:39;17.58;;;5.43;;
12467;SDS011;57850;52.922;6.256;2022-08-03T07:17:07;13.77;;;5.00;;
12467;SDS011;57850;52.922;6.256;2022-08-03T07:19:34;13.30;;;5.15;;
12467;SDS011;57850;52.922;6.256;2022-08-03T07:22:00;16.77;;;5.28;;
12467;SDS011;57850;52.922;6.256;2022-08-03T07:24:28;12.90;;;4.80;;
12467;SDS011;57850;52.922;6.256;2022-08-03T07:26:54;11.98;;;5.35;;
12467;SDS011;57850;52.922;6.256;2022-08-03T07:29:21;11.43;;;5.63;;
12467;SDS011;57850;52.922;6.256;2022-08-03T07:31:48;11.60;;;5.22;;
12467;SDS011;57850;52.922;6.256;2022-08-03T07:34:16;12.40;;;4.68;;
12467;SDS011;57850;52.922;6.256;2022-08-03T07:36:42;13.23;;;4.75;;
12467;SDS011;57850;52.922;6.256;2022-08-03T07:39:09;13.75;;;5.22;;
12467;SDS011;57850;52.922;6.256;2022-08-03T07:41:36;12.82;;;5.07;;
12467;SDS011;57850;52.922;6.256;2022-08-03T07:44:02;13.02;;;5.53;;
12467;SDS011;57850;52.922;6.256;2022-08-03T07:46:30;14.07;;;5.15;;
12467;SDS011;57850;52.922;6.256;2022-08-03T07:48:57;14.68;;;5.25;;
12467;SDS011;57850;52.922;6.256;2022-08-03T07:51:24;9.88;;;5.20;;
12467;SDS011;57850;52.922;6.256;2022-08-03T07:53:51;11.32;;;4.95;;
12467;SDS011;57850;52.922;6.256;2022-08-03T07:56:19;17.10;;;4.95;;
12467;SDS011;57850;52.922;6.256;2022-08-03T07:58:46;15.02;;;5.35;;
12467;SDS011;57850;52.922;6.256;2022-08-03T08:01:13;13.68;;;6.00;;
12467;SDS011;57850;52.922;6.256;2022-08-03T08:03:42;14.45;;;5.20;;
12467;SDS011;57850;52.922;6.256;2022-08-03T08:06:09;11.27;;;5.78;;
12467;SDS011;57850;52.922;6.256;2022-08-03T08:08:38;11.10;;;5.13;;
12467;SDS011;57850;52.922;6.256;2022-08-03T08:11:05;12.68;;;5.15;;
12467;SDS011;57850;52.922;6.256;2022-08-03T08:13:31;10.75;;;5.15;;
12467;SDS011;57850;52.922;6.256;2022-08-03T08:15:58;12.90;;;5.25;;
12467;SDS011;57850;52.922;6.256;2022-08-03T08:18:25;12.80;;;5.05;;
12467;SDS011;57850;52.922;6.256;2022-08-03T08:20:53;10.98;;;5.40;;
12467;SDS011;57850;52.922;6.256;2022-08-03T08:23:20;18.40;;;5.25;;
12467;SDS011;57850;52.922;6.256;2022-08-03T08:25:49;13.57;;;5.40;;
12467;SDS011;57850;52.922;6.256;2022-08-03T08:28:17;13.10;;;5.30;;
12467;SDS011;57850;52.922;6.256;2022-08-03T08:30:44;7.60;;;4.60;;
12467;SDS011;57850;52.922;6.256;2022-08-03T08:33:11;8.85;;;4.50;;
12467;SDS011;57850;52.922;6.256;2022-08-03T08:35:38;15.20;;;5.47;;
12467;SDS011;57850;52.922;6.256;2022-08-03T08:38:04;18.25;;;5.30;;
12467;SDS011;57850;52.922;6.256;2022-08-03T08:40:31;13.52;;;4.93;;
12467;SDS011;57850;52.922;6.256;2022-08-03T08:43:00;9.73;;;4.88;;
12467;SDS011;57850;52.922;6.256;2022-08-03T08:45:27;10.18;;;4.72;;
12467;SDS011;57850;52.922;6.256;2022-08-03T08:47:54;13.88;;;5.93;;
12467;SDS011;57850;52.922;6.256;2022-08-03T08:50:24;10.98;;;5.45;;
12467;SDS011;57850;52.922;6.256;2022-08-03T08:52:50;12.80;;;5.93;;
12467;SDS011;57850;52.922;6.256;2022-08-03T08:55:19;8.63;;;4.90;;
12467;SDS011;57850;52.922;6.256;2022-08-03T08:57:47;14.77;;;5.55;;
12467;SDS011;57850;52.922;6.256;2022-08-03T09:00:17;14.23;;;5.28;;
12467;SDS011;57850;52.922;6.256;2022-08-03T09:02:45;14.57;;;5.10;;
12467;SDS011;57850;52.922;6.256;2022-08-03T09:05:13;15.95;;;5.00;;
12467;SDS011;57850;52.922;6.256;2022-08-03T09:07:43;10.95;;;5.63;;
12467;SDS011;57850;52.922;6.256;2022-08-03T09:10:12;13.18;;;4.95;;
12467;SDS011;57850;52.922;6.256;2022-08-03T09:12:44;12.57;;;5.03;;
12467;SDS011;57850;52.922;6.256;2022-08-03T09:15:16;14.00;;;5.15;;
12467;SDS011;57850;52.922;6.256;2022-08-03T09:17:45;15.90;;;5.75;;
12467;SDS011;57850;52.922;6.256;2022-08-03T09:20:12;15.35;;;5.70;;
12467;SDS011;57850;52.922;6.256;2022-08-03T09:25:26;12.82;;;6.03;;
12467;SDS011;57850;52.922;6.256;2022-08-03T09:28:03;13.48;;;6.10;;
12467;SDS011;57850;52.922;6.256;2022-08-03T09:30:35;13.13;;;6.03;;
12467;SDS011;57850;52.922;6.256;2022-08-03T09:33:03;12.07;;;6.00;;
12467;SDS011;57850;52.922;6.256;2022-08-03T09:35:31;12.15;;;5.35;;
12467;SDS011;57850;52.922;6.256;2022-08-03T09:38:08;16.55;;;5.20;;
12467;SDS011;57850;52.922;6.256;2022-08-03T09:40:36;13.60;;;5.55;;
12467;SDS011;57850;52.922;6.256;2022-08-03T09:43:02;12.10;;;5.38;;
12467;SDS011;57850;52.922;6.256;2022-08-03T09:45:32;13.02;;;5.53;;
12467;SDS011;57850;52.922;6.256;2022-08-03T09:48:03;13.93;;;5.93;;
12467;SDS011;57850;52.922;6.256;2022-08-03T09:50:47;15.05;;;5.20;;
12467;SDS011;57850;52.922;6.256;2022-08-03T09:53:15;10.18;;;5.07;;
12467;SDS011;57850;52.922;6.256;2022-08-03T09:55:49;13.93;;;4.97;;
12467;SDS011;57850;52.922;6.256;2022-08-03T09:58:16;12.65;;;5.43;;
12467;SDS011;57850;52.922;6.256;2022-08-03T10:00:51;14.98;;;5.45;;
12467;SDS011;57850;52.922;6.256;2022-08-03T10:03:20;12.98;;;5.07;;
12467;SDS011;57850;52.922;6.256;2022-08-03T10:05:47;14.65;;;5.20;;
12467;SDS011;57850;52.922;6.256;2022-08-03T10:08:15;14.77;;;5.78;;
12467;SDS011;57850;52.922;6.256;2022-08-03T10:10:43;13.43;;;5.15;;
12467;SDS011;57850;52.922;6.256;2022-08-03T10:13:12;11.80;;;4.05;;
12467;SDS011;57850;52.922;6.256;2022-08-03T10:15:40;12.43;;;5.07;;
12467;SDS011;57850;52.922;6.256;2022-08-03T10:18:07;14.18;;;4.97;;
12467;SDS011;57850;52.922;6.256;2022-08-03T10:20:37;12.75;;;5.28;;
12467;SDS011;57850;52.922;6.256;2022-08-03T10:23:08;15.18;;;5.90;;
12467;SDS011;57850;52.922;6.256;2022-08-03T10:25:36;16.48;;;5.88;;
12467;SDS011;57850;52.922;6.256;2022-08-03T10:28:05;12.15;;;5.05;;
12467;SDS011;57850;52.922;6.256;2022-08-03T10:30:33;11.85;;;4.57;;
12467;SDS011;57850;52.922;6.256;2022-08-03T10:33:02;11.55;;;5.07;;
12467;SDS011;57850;52.922;6.256;2022-08-03T10:35:33;14.13;;;4.88;;
12467;SDS011;57850;52.922;6.256;2022-08-03T10:38:04;13.32;;;5.03;;
12467;SDS011;57850;52.922;6.256;2022-08-03T10:40:35;13.60;;;5.07;;
12467;SDS011;57850;52.922;6.256;2022-08-03T10:43:05;12.45;;;5.43;;
12467;SDS011;57850;52.922;6.256;2022-08-03T10:45:35;13.93;;;4.72;;
12467;SDS011;57850;52.922;6.256;2022-08-03T10:48:06;24.30;;;5.55;;
12467;SDS011;57850;52.922;6.256;2022-08-03T10:50:34;15.10;;;5.00;;
12467;SDS011;57850;52.922;6.256;2022-08-03T10:53:02;14.43;;;5.93;;
12467;SDS011;57850;52.922;6.256;2022-08-03T10:55:32;18.92;;;5.25;;
12467;SDS011;57850;52.922;6.256;2022-08-03T11:01:14;13.35;;;5.75;;
12467;SDS011;57850;52.922;6.256;2022-08-03T11:06:54;13.65;;;5.50;;
12467;SDS011;57850;52.922;6.256;2022-08-03T11:09:46;23.15;;;5.60;;
12467;SDS011;57850;52.922;6.256;2022-08-03T11:12:21;19.45;;;5.75;;
12467;SDS011;57850;52.922;6.256;2022-08-03T11:14:49;16.20;;;4.85;;
12467;SDS011;57850;52.922;6.256;2022-08-03T11:17:18;17.30;;;5.60;;
12467;SDS011;57850;52.922;6.256;2022-08-03T11:19:45;18.40;;;6.03;;
12467;SDS011;57850;52.922;6.256;2022-08-03T11:22:14;14.50;;;5.72;;
12467;SDS011;57850;52.922;6.256;2022-08-03T11:27:38;17.45;;;5.53;;
12467;SDS011;57850;52.922;6.256;2022-08-03T11:30:05;13.77;;;5.63;;
12467;SDS011;57850;52.922;6.256;2022-08-03T11:32:52;14.70;;;4.80;;
12467;SDS011;57850;52.922;6.256;2022-08-03T11:35:22;15.82;;;5.90;;
12467;SDS011;57850;52.922;6.256;2022-08-03T11:38:03;17.77;;;5.75;;
12467;SDS011;57850;52.922;6.256;2022-08-03T11:40:33;13.50;;;5.40;;
12467;SDS011;57850;52.922;6.256;2022-08-03T11:43:02;15.60;;;5.68;;
12467;SDS011;57850;52.922;6.256;2022-08-03T11:45:30;16.77;;;6.20;;
12467;SDS011;57850;52.922;6.256;2022-08-03T11:47:57;20.92;;;5.70;;
12467;SDS011;57850;52.922;6.256;2022-08-03T11:50:34;13.75;;;5.38;;
12467;SDS011;57850;52.922;6.256;2022-08-03T11:53:02;13.52;;;5.80;;
12467;SDS011;57850;52.922;6.256;2022-08-03T11:55:29;22.08;;;5.60;;
12467;SDS011;57850;52.922;6.256;2022-08-03T11:57:58;16.35;;;5.20;;
12467;SDS011;57850;52.922;6.256;2022-08-03T12:00:26;15.05;;;5.70;;
12467;SDS011;57850;52.922;6.256;2022-08-03T12:02:58;18.70;;;5.72;;
12467;SDS011;57850;52.922;6.256;2022-08-03T12:05:40;14.88;;;6.00;;
12467;SDS011;57850;52.922;6.256;2022-08-03T12:08:09;15.88;;;6.82;;
12467;SDS011;57850;52.922;6.256;2022-08-03T12:10:36;14.18;;;5.15;;
12467;SDS011;57850;52.922;6.256;2022-08-03T12:13:06;17.40;;;5.72;;
12467;SDS011;57850;52.922;6.256;2022-08-03T12:15:34;21.27;;;6.25;;
12467;SDS011;57850;52.922;6.256;2022-08-03T12:18:03;14.90;;;5.90;;
12467;SDS011;57850;52.922;6.256;2022-08-03T12:20:38;18.73;;;6.38;;
12467;SDS011;57850;52.922;6.256;2022-08-03T12:23:05;15.27;;;5.75;;
12467;SDS011;57850;52.922;6.256;2022-08-03T12:25:33;16.55;;;6.03;;
12467;SDS011;57850;52.922;6.256;2022-08-03T12:28:07;18.02;;;6.32;;
12467;SDS011;57850;52.922;6.256;2022-08-03T12:30:36;14.48;;;6.60;;
12467;SDS011;57850;52.922;6.256;2022-08-03T12:36:03;14.70;;;5.82;;
12467;SDS011;57850;52.922;6.256;2022-08-03T12:38:32;14.18;;;5.78;;
12467;SDS011;57850;52.922;6.256;2022-08-03T12:41:04;13.23;;;5.75;;
12467;SDS011;57850;52.922;6.256;2022-08-03T12:43:45;13.57;;;5.43;;
12467;SDS011;57850;52.922;6.256;2022-08-03T12:46:14;14.82;;;5.40;;
12467;SDS011;57850;52.922;6.256;2022-08-03T12:48:57;11.02;;;4.75;;
12467;SDS011;57850;52.922;6.256;2022-08-03T12:51:25;19.98;;;5.25;;
12467;SDS011;57850;52.922;6.256;2022-08-03T12:53:52;12.23;;;5.47;;
12467;SDS011;57850;52.922;6.256;2022-08-03T12:56:19;15.70;;;6.07;;
12467;SDS011;57850;52.922;6.256;2022-08-03T12:58:47;15.75;;;5.25;;
12467;SDS011;57850;52.922;6.256;2022-08-03T13:01:15;9.07;;;4.93;;
12467;SDS011;57850;52.922;6.256;2022-08-03T13:03:43;57.88;;;11.57;;
12467;SDS011;57850;52.922;6.256;2022-08-03T13:06:11;9.52;;;4.72;;
12467;SDS011;57850;52.922;6.256;2022-08-03T13:08:38;11.50;;;4.75;;
12467;SDS011;57850;52.922;6.256;2022-08-03T13:11:21;14.07;;;4.97;;
12467;SDS011;57850;52.922;6.256;2022-08-03T13:13:51;18.77;;;4.97;;
12467;SDS011;57850;52.922;6.256;2022-08-03T13:16:19;17.90;;;4.97;;
12467;SDS011;57850;52.922;6.256;2022-08-03T13:18:46;12.35;;;4.80;;
12467;SDS011;57850;52.922;6.256;2022-08-03T13:21:13;12.55;;;5.32;;
12467;SDS011;57850;52.922;6.256;2022-08-03T13:23:40;14.50;;;4.63;;
12467;SDS011;57850;52.922;6.256;2022-08-03T13:26:07;15.20;;;4.53;;
12467;SDS011;57850;52.922;6.256;2022-08-03T13:28:34;13.45;;;4.60;;
12467;SDS011;57850;52.922;6.256;2022-08-03T13:31:02;10.85;;;4.40;;
12467;SDS011;57850;52.922;6.256;2022-08-03T13:33:29;13.68;;;4.55;;
12467;SDS011;57850;52.922;6.256;2022-08-03T13:35:55;9.57;;;4.53;;
12467;SDS011;57850;52.922;6.256;2022-08-03T13:38:22;9.57;;;4.00;;
12467;SDS011;57850;52.922;6.256;2022-08-03T13:40:50;9.85;;;5.10;;
12467;SDS011;57850;52.922;6.256;2022-08-03T13:43:17;14.75;;;4.38;;
12467;SDS011;57850;52.922;6.256;2022-08-03T13:45:43;10.10;;;4.47;;
12467;SDS011;57850;52.922;6.256;2022-08-03T13:48:11;14.20;;;4.75;;
12467;SDS011;57850;52.922;6.256;2022-08-03T13:50:38;12.25;;;4.60;;
12467;SDS011;57850;52.922;6.256;2022-08-03T13:53:04;11.50;;;4.35;;
12467;SDS011;57850;52.922;6.256;2022-08-03T13:55:31;10.02;;;4.18;;
12467;SDS011;57850;52.922;6.256;2022-08-03T13:57:57;7.28;;;4.22;;
12467;SDS011;57850;52.922;6.256;2022-08-03T14:00:24;10.35;;;4.53;;
12467;SDS011;57850;52.922;6.256;2022-08-03T14:02:51;11.70;;;4.40;;
12467;SDS011;57850;52.922;6.256;2022-08-03T14:05:19;12.73;;;4.55;;
12467;SDS011;57850;52.922;6.256;2022-08-03T14:07:46;12.38;;;4.97;;
12467;SDS011;57850;52.922;6.256;2022-08-03T14:10:13;15.93;;;5.07;;
12467;SDS011;57850;52.922;6.256;2022-08-03T14:12:41;10.68;;;5.18;;
12467;SDS011;57850;52.922;6.256;2022-08-03T14:15:08;8.73;;;4.97;;
12467;SDS011;57850;52.922;6.256;2022-08-03T14:17:37;12.55;;;5.55;;
12467;SDS011;57850;52.922;6.256;2022-08-03T14:20:04;14.88;;;5.45;;
12467;SDS011;57850;52.922;6.256;2022-08-03T14:22:33;13.18;;;5.70;;
12467;SDS011;57850;52.922;6.256;2022-08-03T14:24:59;9.45;;;6.03;;
12467;SDS011;57850;52.922;6.256;2022-08-03T14:27:26;11.27;;;6.20;;
12467;SDS011;57850;52.922;6.256;2022-08-03T14:29:52;13.52;;;6.55;;
12467;SDS011;57850;52.922;6.256;2022-08-03T14:32:21;11.75;;;6.10;;
12467;SDS011;57850;52.922;6.256;2022-08-03T14:34:47;14.00;;;5.72;;
12467;SDS011;57850;52.922;6.256;2022-08-03T14:37:14;11.05;;;5.75;;
12467;SDS011;57850;52.922;6.256;2022-08-03T14:39:41;13.27;;;5.80;;
12467;SDS011;57850;52.922;6.256;2022-08-03T14:42:08;14.70;;;6.22;;
12467;SDS011;57850;52.922;6.256;2022-08-03T14:44:34;10.15;;;5.60;;
12467;SDS011;57850;52.922;6.256;2022-08-03T14:47:01;9.32;;;5.35;;
12467;SDS011;57850;52.922;6.256;2022-08-03T14:49:27;13.32;;;6.13;;
12467;SDS011;57850;52.922;6.256;2022-08-03T14:51:54;11.50;;;6.20;;
12467;SDS011;57850;52.922;6.256;2022-08-03T14:54:21;13.32;;;5.88;;
12467;SDS011;57850;52.922;6.256;2022-08-03T14:56:49;11.30;;;5.65;;
12467;SDS011;57850;52.922;6.256;2022-08-03T14:59:16;9.65;;;6.40;;
12467;SDS011;57850;52.922;6.256;2022-08-03T15:01:42;12.85;;;6.40;;
12467;SDS011;57850;52.922;6.256;2022-08-03T15:04:09;9.70;;;6.15;;
12467;SDS011;57850;52.922;6.256;2022-08-03T15:06:35;14.45;;;6.63;;
12467;SDS011;57850;52.922;6.256;2022-08-03T15:09:02;16.58;;;5.95;;
12467;SDS011;57850;52.922;6.256;2022-08-03T15:11:28;10.40;;;5.57;;